Time;durP1;ratioP1;P1;durP2;ratioP2;P2;SDS_P1;SDS_P2;PMS_P1;PMS_P2;Temp;Humidity;BMP_temperature;BMP_pressure;BME280_temperature;BME280_humidity;BME280_pressure;Samples;Min_cycle;Max_cycle;Signal;HPM_P1;HPM_P2
2021/12/03 00:00:24;;;;;;;0.23;0.20;;;1.90;99.90;;;;;;5007137;28;20563;-80
2021/12/03 00:02:50;;;;;;;0.20;0.10;;;1.90;99.90;;;;;;5023967;28;20244;-80
2021/12/03 00:05:15;;;;;;;0.10;0.10;;;2.00;99.90;;;;;;5005107;28;20473;-80
2021/12/03 00:07:42;;;;;;;0.00;0.00;;;2.00;99.90;;;;;;5006768;28;20176;-80
2021/12/03 00:10:11;;;;;;;0.00;0.00;;;1.90;99.90;;;;;;5004117;28;20179;-80
2021/12/03 00:12:37;;;;;;;0.10;0.10;;;1.90;99.90;;;;;;5006003;28;20523;-80
2021/12/03 00:15:05;;;;;;;0.17;0.17;;;1.90;99.90;;;;;;4997663;28;20207;-79
2021/12/03 00:17:31;;;;;;;0.07;0.07;;;1.90;99.90;;;;;;5003610;28;20171;-80
2021/12/03 00:19:56;;;;;;;0.10;0.10;;;2.00;99.90;;;;;;5030587;28;20178;-80
2021/12/03 00:22:22;;;;;;;0.13;0.13;;;1.90;99.90;;;;;;4998578;28;20665;-80
2021/12/03 00:24:48;;;;;;;0.10;0.10;;;1.90;99.90;;;;;;5010175;28;20199;-80
2021/12/03 00:27:13;;;;;;;0.10;0.10;;;1.90;99.90;;;;;;5026359;28;20273;-80
2021/12/03 00:29:39;;;;;;;0.10;0.10;;;1.90;99.90;;;;;;5004444;28;20241;-80
2021/12/03 00:32:05;;;;;;;1.07;0.20;;;2.00;99.90;;;;;;4996936;28;20184;-80
2021/12/03 00:34:31;;;;;;;0.10;0.10;;;1.90;99.90;;;;;;5001170;28;20174;-80
2021/12/03 00:36:56;;;;;;;1.30;0.20;;;1.90;99.90;;;;;;4994280;28;20188;-79
2021/12/03 00:39:22;;;;;;;0.10;0.10;;;1.90;99.90;;;;;;5001276;28;20238;-80
2021/12/03 00:41:55;;;;;;;0.00;0.00;;;1.90;99.90;;;;;;5006164;28;20177;-80
2021/12/03 00:44:23;;;;;;;0.40;0.27;;;1.90;99.90;;;;;;5006275;28;20180;-80
2021/12/03 00:46:49;;;;;;;0.10;0.10;;;1.90;99.90;;;;;;5020731;28;20205;-80
2021/12/03 00:49:14;;;;;;;0.00;0.00;;;1.80;99.90;;;;;;5003158;28;20310;-80
2021/12/03 00:51:40;;;;;;;0.10;0.10;;;1.80;99.90;;;;;;5019014;28;20231;-80
2021/12/03 00:54:06;;;;;;;0.10;0.10;;;1.80;99.90;;;;;;5002078;28;20241;-80
2021/12/03 00:56:31;;;;;;;0.07;0.07;;;1.80;99.90;;;;;;4996854;28;20209;-80
2021/12/03 00:58:57;;;;;;;2.77;0.30;;;1.80;99.90;;;;;;4998209;28;20180;-80
2021/12/03 01:01:23;;;;;;;0.00;0.00;;;1.70;99.90;;;;;;5005652;28;20183;-80
2021/12/03 01:03:48;;;;;;;0.10;0.10;;;1.70;99.90;;;;;;5010610;28;20640;-80
2021/12/03 01:06:14;;;;;;;0.37;0.37;;;1.70;99.90;;;;;;5009227;28;20231;-80
2021/12/03 01:08:40;;;;;;;0.10;0.10;;;1.60;99.90;;;;;;5027232;28;20167;-80
2021/12/03 01:11:07;;;;;;;0.10;0.10;;;1.60;99.90;;;;;;5002426;28;20243;-80
2021/12/03 01:13:33;;;;;;;0.37;0.20;;;1.70;99.90;;;;;;5001844;28;20617;-80
2021/12/03 01:15:59;;;;;;;0.10;0.10;;;1.70;99.90;;;;;;5002355;28;20286;-80
2021/12/03 01:18:25;;;;;;;0.10;0.10;;;1.70;99.90;;;;;;5009617;28;20598;-79
2021/12/03 01:20:52;;;;;;;0.40;0.40;;;1.70;99.90;;;;;;5018924;28;20310;-80
2021/12/03 01:23:17;;;;;;;0.47;0.30;;;1.70;99.90;;;;;;5021152;28;20677;-80
2021/12/03 01:25:43;;;;;;;0.10;0.10;;;1.70;99.90;;;;;;5002292;28;20214;-80
2021/12/03 01:28:09;;;;;;;0.10;0.10;;;1.60;99.90;;;;;;4999789;28;20190;-80
2021/12/03 01:30:35;;;;;;;0.50;0.50;;;1.60;99.90;;;;;;4990489;28;20187;-80
2021/12/03 01:33:05;;;;;;;0.20;0.20;;;1.60;99.90;;;;;;5020362;28;20182;-80
2021/12/03 01:35:30;;;;;;;1.27;0.60;;;1.60;99.90;;;;;;4995125;28;20203;-80
2021/12/03 01:37:56;;;;;;;0.50;0.50;;;1.70;99.90;;;;;;4994799;28;20219;-80
2021/12/03 01:40:24;;;;;;;0.10;0.10;;;1.80;99.90;;;;;;5030932;28;20672;-80
2021/12/03 01:42:50;;;;;;;0.63;0.60;;;1.80;99.90;;;;;;4991634;28;20195;-80
2021/12/03 01:45:23;;;;;;;0.20;0.20;;;1.70;99.90;;;;;;5017722;28;20310;-80
2021/12/03 01:47:51;;;;;;;1.10;0.53;;;1.70;99.90;;;;;;4994109;28;20179;-80
2021/12/03 01:50:17;;;;;;;0.20;0.20;;;1.70;99.90;;;;;;5017105;28;21601;-79
2021/12/03 01:52:43;;;;;;;0.40;0.30;;;1.60;99.90;;;;;;4997141;28;20176;-81
2021/12/03 01:55:11;;;;;;;0.20;0.20;;;1.60;99.90;;;;;;4998000;28;20202;-80
2021/12/03 01:57:37;;;;;;;0.20;0.20;;;1.60;99.90;;;;;;4990349;28;20568;-80
2021/12/03 02:00:16;;;;;;;0.40;0.40;;;1.60;99.90;;;;;;5017641;28;20183;-80
2021/12/03 02:02:42;;;;;;;0.40;0.40;;;1.60;99.90;;;;;;4997255;28;20202;-80
2021/12/03 02:05:08;;;;;;;0.20;0.20;;;1.50;99.90;;;;;;5008065;28;20202;-80
2021/12/03 02:07:34;;;;;;;0.13;0.13;;;1.50;99.90;;;;;;4998957;28;20175;-80
2021/12/03 02:10:00;;;;;;;0.47;0.47;;;1.50;99.90;;;;;;5002014;28;20227;-80
2021/12/03 02:12:25;;;;;;;0.10;0.10;;;1.50;99.90;;;;;;4988078;28;20182;-80
2021/12/03 02:14:51;;;;;;;0.60;0.60;;;1.40;99.90;;;;;;5005893;28;20198;-80
2021/12/03 02:17:17;;;;;;;0.43;0.37;;;1.50;99.90;;;;;;4994828;28;20187;-80
2021/12/03 02:19:43;;;;;;;0.10;0.10;;;1.50;99.90;;;;;;4999542;28;20218;-80
2021/12/03 02:22:09;;;;;;;0.10;0.10;;;1.50;99.90;;;;;;4995624;28;20184;-80
2021/12/03 02:24:36;;;;;;;0.10;0.10;;;1.30;99.90;;;;;;5009647;28;20183;-80
2021/12/03 02:27:02;;;;;;;0.10;0.10;;;1.20;99.90;;;;;;4995255;28;20192;-80
2021/12/03 02:29:28;;;;;;;0.30;0.30;;;1.20;99.90;;;;;;4998838;28;20536;-79
2021/12/03 02:31:53;;;;;;;0.57;0.57;;;1.20;99.90;;;;;;5002353;28;20175;-80
2021/12/03 02:34:19;;;;;;;0.20;0.20;;;1.20;99.90;;;;;;5007020;28;20712;-80
2021/12/03 02:36:45;;;;;;;0.33;0.33;;;1.30;99.90;;;;;;5010545;28;20234;-79
2021/12/03 02:39:10;;;;;;;0.73;0.43;;;1.30;99.90;;;;;;5007856;28;20563;-80
2021/12/03 02:41:36;;;;;;;0.10;0.10;;;1.30;99.90;;;;;;5001701;28;20259;-80
2021/12/03 02:44:02;;;;;;;3.30;0.63;;;1.20;99.90;;;;;;4999359;28;20179;-80
2021/12/03 02:46:28;;;;;;;0.43;0.43;;;1.30;99.90;;;;;;5012771;28;20206;-79
2021/12/03 02:48:54;;;;;;;0.40;0.40;;;1.30;99.90;;;;;;5008656;28;20183;-80
2021/12/03 02:51:20;;;;;;;0.20;0.20;;;1.30;99.90;;;;;;5005657;28;20214;-80
2021/12/03 02:53:45;;;;;;;0.30;0.30;;;1.30;99.90;;;;;;5005280;28;20202;-80
2021/12/03 02:56:11;;;;;;;0.20;0.20;;;1.30;99.90;;;;;;5026075;28;20242;-80
2021/12/03 02:58:37;;;;;;;0.10;0.10;;;1.20;99.90;;;;;;5012132;28;20311;-80
2021/12/03 03:01:06;;;;;;;0.43;0.43;;;1.20;99.90;;;;;;5013627;28;20179;-80
2021/12/03 03:03:31;;;;;;;0.50;0.50;;;1.30;99.90;;;;;;5016462;28;20182;-80
2021/12/03 03:06:02;;;;;;;0.17;0.17;;;1.30;99.90;;;;;;5015114;28;20229;-80
2021/12/03 03:08:29;;;;;;;0.20;0.20;;;1.20;99.90;;;;;;5006700;28;20178;-79
2021/12/03 03:10:57;;;;;;;0.50;0.50;;;1.20;99.90;;;;;;5003251;28;20180;-80
2021/12/03 03:13:23;;;;;;;0.10;0.10;;;1.20;99.90;;;;;;5002953;28;20201;-79
2021/12/03 03:15:49;;;;;;;0.20;0.20;;;1.10;99.90;;;;;;5003102;28;20698;-80
2021/12/03 03:18:18;;;;;;;0.37;0.30;;;1.10;99.90;;;;;;5006839;28;20190;-79
2021/12/03 03:20:45;;;;;;;2.00;0.27;;;1.10;99.90;;;;;;5007476;28;20189;-80
2021/12/03 03:23:12;;;;;;;1.50;0.20;;;1.00;99.90;;;;;;5006431;28;20676;-79
2021/12/03 03:25:40;;;;;;;0.07;0.07;;;0.80;99.90;;;;;;5007470;28;20238;-80
2021/12/03 03:28:06;;;;;;;0.27;0.27;;;0.80;99.90;;;;;;5013078;28;20183;-80
2021/12/03 03:30:32;;;;;;;2.77;0.83;;;0.80;99.90;;;;;;5009711;28;20179;-80
2021/12/03 03:32:58;;;;;;;0.27;0.27;;;0.80;99.90;;;;;;5006600;28;20574;-80
2021/12/03 03:35:24;;;;;;;0.40;0.40;;;0.80;99.90;;;;;;5000084;28;20203;-80
2021/12/03 03:37:50;;;;;;;0.10;0.10;;;0.60;99.90;;;;;;5002509;28;20176;-80
2021/12/03 03:40:16;;;;;;;0.27;0.27;;;0.60;99.90;;;;;;5002789;28;20212;-80
2021/12/03 03:42:43;;;;;;;0.10;0.10;;;0.60;99.90;;;;;;5006318;28;20176;-80
2021/12/03 03:45:13;;;;;;;0.03;0.03;;;0.70;99.90;;;;;;5009696;28;20218;-80
2021/12/03 03:47:40;;;;;;;0.30;0.30;;;0.70;99.90;;;;;;5004241;28;20179;-80
2021/12/03 03:50:07;;;;;;;0.30;0.30;;;0.80;99.90;;;;;;5007846;28;20185;-80
2021/12/03 03:52:35;;;;;;;0.27;0.27;;;0.90;99.90;;;;;;5010024;28;20186;-79
2021/12/03 03:55:01;;;;;;;0.20;0.20;;;0.90;99.90;;;;;;5027410;28;20262;-79
2021/12/03 03:57:26;;;;;;;0.50;0.50;;;0.90;99.90;;;;;;5004924;28;20199;-80
2021/12/03 03:59:53;;;;;;;0.73;0.57;;;0.80;99.90;;;;;;5025093;28;20237;-80
2021/12/03 04:02:19;;;;;;;0.57;0.33;;;0.80;99.90;;;;;;5010866;28;21583;-80
2021/12/03 04:04:45;;;;;;;0.20;0.20;;;0.80;99.90;;;;;;5034519;28;20247;-80
2021/12/03 04:07:10;;;;;;;0.13;0.13;;;0.80;99.90;;;;;;5015744;28;20253;-79
2021/12/03 04:09:36;;;;;;;0.10;0.10;;;0.60;99.90;;;;;;5018334;28;20687;-79
2021/12/03 04:12:02;;;;;;;1.97;0.20;;;0.60;99.90;;;;;;5007441;28;20640;-79
2021/12/03 04:14:27;;;;;;;0.10;0.10;;;0.70;99.90;;;;;;5018272;28;20187;-80
2021/12/03 04:16:53;;;;;;;0.37;0.37;;;0.60;99.90;;;;;;5014089;28;20211;-80
2021/12/03 04:19:19;;;;;;;0.20;0.20;;;0.60;99.90;;;;;;5012487;28;20195;-79
2021/12/03 04:21:45;;;;;;;0.10;0.10;;;0.50;99.90;;;;;;5008255;28;20179;-79
2021/12/03 04:24:11;;;;;;;0.10;0.10;;;0.50;99.90;;;;;;5006119;28;20190;-80
2021/12/03 04:26:36;;;;;;;0.23;0.23;;;0.40;99.90;;;;;;5006391;28;20219;-79
2021/12/03 04:29:03;;;;;;;0.40;0.40;;;0.30;99.90;;;;;;5026957;28;20184;-79
2021/12/03 04:31:29;;;;;;;0.10;0.10;;;0.40;99.90;;;;;;5013612;28;20206;-80
2021/12/03 04:33:54;;;;;;;0.17;0.17;;;0.40;99.90;;;;;;5010637;28;20179;-80
2021/12/03 04:36:20;;;;;;;0.30;0.30;;;0.50;99.90;;;;;;5013853;28;20203;-78
2021/12/03 04:38:46;;;;;;;0.60;0.40;;;0.60;99.90;;;;;;5025438;28;20213;-79
2021/12/03 04:41:12;;;;;;;0.97;0.53;;;0.60;99.90;;;;;;5001112;28;20218;-79
2021/12/03 04:43:37;;;;;;;0.30;0.30;;;0.70;99.90;;;;;;5024464;28;20246;-79
2021/12/03 04:46:03;;;;;;;0.20;0.20;;;0.70;99.90;;;;;;5031753;28;20277;-79
2021/12/03 04:48:29;;;;;;;0.40;0.20;;;0.60;99.90;;;;;;5004153;28;20183;-80
2021/12/03 04:50:54;;;;;;;0.10;0.10;;;0.50;99.90;;;;;;5008220;28;20652;-79
2021/12/03 04:53:20;;;;;;;0.10;0.10;;;0.40;99.90;;;;;;5004108;28;20249;-79
2021/12/03 04:55:47;;;;;;;0.20;0.20;;;0.40;99.90;;;;;;5023070;28;20207;-79
2021/12/03 04:58:13;;;;;;;0.10;0.10;;;0.40;99.90;;;;;;5010778;28;20187;-79
2021/12/03 05:00:49;;;;;;;1.80;0.30;;;0.50;99.90;;;;;;5004429;28;20245;-79
2021/12/03 05:03:15;;;;;;;0.10;0.10;;;0.40;99.90;;;;;;5018523;28;20171;-80
2021/12/03 05:05:53;;;;;;;0.17;0.17;;;0.40;99.90;;;;;;5016621;28;20214;-80
2021/12/03 05:08:19;;;;;;;0.20;0.20;;;0.40;99.90;;;;;;5028331;28;20169;-80
2021/12/03 05:10:44;;;;;;;0.60;0.60;;;0.30;99.90;;;;;;5020476;28;20167;-80
2021/12/03 05:13:17;;;;;;;0.30;0.30;;;0.30;99.90;;;;;;5012441;28;20179;-81
2021/12/03 05:15:44;;;;;;;0.10;0.10;;;0.20;99.90;;;;;;5001640;28;20202;-81
2021/12/03 05:18:12;;;;;;;0.10;0.10;;;0.30;99.90;;;;;;5003300;28;20590;-81
2021/12/03 05:20:38;;;;;;;0.13;0.13;;;0.30;99.90;;;;;;5006481;28;20179;-82
2021/12/03 05:23:04;;;;;;;0.00;0.00;;;0.20;99.90;;;;;;4995724;28;20250;-78
2021/12/03 05:25:30;;;;;;;0.33;0.33;;;0.20;99.90;;;;;;5013752;28;20223;-79
2021/12/03 05:27:56;;;;;;;0.53;0.53;;;0.30;99.90;;;;;;5023186;28;20194;-80
2021/12/03 05:30:22;;;;;;;0.17;0.17;;;0.40;99.90;;;;;;4994429;28;20171;-79
2021/12/03 05:32:48;;;;;;;0.30;0.30;;;0.50;99.90;;;;;;5019623;28;20188;-79
2021/12/03 05:35:14;;;;;;;0.20;0.20;;;0.60;99.90;;;;;;5015445;28;20285;-80
2021/12/03 05:37:39;;;;;;;0.37;0.37;;;0.60;99.90;;;;;;5006552;28;20601;-79
2021/12/03 05:40:07;;;;;;;0.00;0.00;;;0.40;99.90;;;;;;5003321;28;20180;-79
2021/12/03 05:42:33;;;;;;;0.20;0.20;;;0.20;99.90;;;;;;5008371;28;20743;-79
2021/12/03 05:44:59;;;;;;;0.17;0.17;;;0.20;99.90;;;;;;5018932;28;20211;-81
2021/12/03 05:47:25;;;;;;;0.30;0.30;;;0.10;99.90;;;;;;5012275;28;20596;-80
2021/12/03 05:49:51;;;;;;;0.10;0.10;;;0.20;99.90;;;;;;5002808;28;20180;-80
2021/12/03 05:52:17;;;;;;;0.27;0.27;;;0.20;99.90;;;;;;4996035;28;20187;-81
2021/12/03 05:54:45;;;;;;;0.10;0.10;;;0.20;99.90;;;;;;5000250;28;20181;-80
2021/12/03 05:57:11;;;;;;;0.10;0.10;;;0.20;99.90;;;;;;5011489;28;20494;-80
2021/12/03 05:59:36;;;;;;;0.27;0.20;;;0.20;99.90;;;;;;5009282;28;20187;-79
2021/12/03 06:02:02;;;;;;;0.10;0.10;;;0.10;99.90;;;;;;4995870;28;20175;-79
2021/12/03 06:04:29;;;;;;;0.00;0.00;;;0.10;99.90;;;;;;5015914;28;20199;-78
2021/12/03 06:06:55;;;;;;;0.27;0.27;;;0.10;99.90;;;;;;5013160;28;20667;-78
2021/12/03 06:09:21;;;;;;;0.27;0.27;;;0.00;99.90;;;;;;4995488;28;20179;-79
2021/12/03 06:11:46;;;;;;;0.83;0.83;;;0.10;99.90;;;;;;4997545;28;20188;-80
2021/12/03 06:14:12;;;;;;;0.33;0.33;;;0.10;99.90;;;;;;5004884;28;20186;-82
2021/12/03 06:16:37;;;;;;;0.10;0.10;;;0.20;99.90;;;;;;4993057;28;20199;-81
2021/12/03 06:19:03;;;;;;;0.10;0.10;;;0.20;99.90;;;;;;4995891;28;20179;-81
2021/12/03 06:21:29;;;;;;;0.20;0.20;;;0.20;99.90;;;;;;4999044;28;20198;-82
2021/12/03 06:23:54;;;;;;;0.10;0.10;;;0.10;99.90;;;;;;5003940;28;20175;-81
2021/12/03 06:26:20;;;;;;;0.20;0.10;;;0.10;99.90;;;;;;4992378;28;20213;-81
2021/12/03 06:28:46;;;;;;;0.00;0.00;;;-0.10;99.90;;;;;;5010761;28;20183;-83
2021/12/03 06:31:11;;;;;;;2.47;1.80;;;-0.20;99.90;;;;;;5002623;28;20656;-81
2021/12/03 06:33:37;;;;;;;0.30;0.30;;;-0.30;99.90;;;;;;5016981;28;20175;-80
2021/12/03 06:36:04;;;;;;;0.30;0.30;;;-0.20;99.90;;;;;;5003125;28;20207;-82
2021/12/03 06:38:31;;;;;;;0.00;0.00;;;-0.10;99.90;;;;;;5002308;28;20272;-80
2021/12/03 06:40:57;;;;;;;0.20;0.20;;;0.00;99.90;;;;;;4999182;28;20188;-80
2021/12/03 06:43:23;;;;;;;0.30;0.30;;;0.00;99.90;;;;;;5003631;28;20190;-80
2021/12/03 06:45:48;;;;;;;0.07;0.03;;;0.00;99.90;;;;;;5003420;28;20222;-80
2021/12/03 06:48:15;;;;;;;0.10;0.10;;;0.10;99.90;;;;;;5004150;28;20227;-80
2021/12/03 06:50:42;;;;;;;0.43;0.43;;;0.00;99.90;;;;;;5020583;28;20266;-80
2021/12/03 06:53:11;;;;;;;0.00;0.00;;;0.10;99.90;;;;;;5021946;28;20172;-80
2021/12/03 06:55:47;;;;;;;0.10;0.10;;;0.10;99.90;;;;;;4999338;28;20594;-80
2021/12/03 06:58:16;;;;;;;0.30;0.20;;;0.10;99.90;;;;;;5007979;28;20189;-80
2021/12/03 07:00:43;;;;;;;0.00;0.00;;;0.00;99.90;;;;;;5023533;28;20183;-80
2021/12/03 07:03:09;;;;;;;0.37;0.20;;;0.00;99.90;;;;;;5019814;28;20605;-80
2021/12/03 07:05:35;;;;;;;0.67;0.30;;;0.10;99.90;;;;;;5004980;28;20241;-80
2021/12/03 07:08:01;;;;;;;0.23;0.23;;;0.10;99.90;;;;;;4997949;28;20177;-79
2021/12/03 07:10:27;;;;;;;0.33;0.33;;;0.00;99.90;;;;;;5001812;28;20179;-80
2021/12/03 07:12:54;;;;;;;0.83;0.30;;;-0.10;99.90;;;;;;5004446;28;20182;-80
2021/12/03 07:15:20;;;;;;;0.17;0.17;;;-0.10;99.90;;;;;;5012439;28;20207;-80
2021/12/03 07:17:49;;;;;;;0.20;0.20;;;0.00;99.90;;;;;;5020288;28;20187;-80
2021/12/03 07:20:19;;;;;;;0.10;0.10;;;0.00;99.90;;;;;;5008144;28;20199;-80
2021/12/03 07:22:45;;;;;;;0.57;0.57;;;0.10;99.90;;;;;;4995995;28;20172;-80
2021/12/03 07:25:11;;;;;;;0.30;0.30;;;0.20;99.90;;;;;;5002398;28;20206;-80
2021/12/03 07:27:36;;;;;;;0.20;0.20;;;0.30;99.90;;;;;;5001694;28;20211;-82
2021/12/03 07:30:03;;;;;;;0.17;0.17;;;0.50;99.90;;;;;;5007140;28;20272;-81
2021/12/03 07:32:30;;;;;;;0.13;0.13;;;0.50;99.90;;;;;;5003084;28;20195;-81
2021/12/03 07:34:56;;;;;;;0.43;0.43;;;0.60;99.90;;;;;;4986764;28;20812;-81
2021/12/03 07:37:21;;;;;;;0.33;0.33;;;0.70;99.90;;;;;;4996519;28;20191;-82
2021/12/03 07:39:49;;;;;;;0.20;0.20;;;0.90;99.90;;;;;;4990650;28;20582;-81
2021/12/03 07:42:15;;;;;;;0.40;0.40;;;1.20;99.90;;;;;;4995673;28;20713;-81
2021/12/03 07:44:41;;;;;;;0.20;0.20;;;1.50;99.90;;;;;;5011552;28;20199;-81
2021/12/03 07:47:09;;;;;;;0.67;0.63;;;1.60;99.90;;;;;;5002646;28;20601;-81
2021/12/03 07:49:36;;;;;;;0.93;0.67;;;1.50;99.90;;;;;;4994609;28;20204;-81
2021/12/03 07:52:02;;;;;;;0.07;0.07;;;1.50;99.90;;;;;;4999356;28;20194;-81
2021/12/03 07:54:27;;;;;;;0.93;0.70;;;1.80;99.90;;;;;;5000027;28;20179;-81
2021/12/03 07:56:53;;;;;;;0.20;0.20;;;2.10;99.90;;;;;;4996459;28;20668;-81
2021/12/03 07:59:18;;;;;;;0.37;0.37;;;2.40;99.90;;;;;;5014931;28;20196;-81
2021/12/03 08:01:46;;;;;;;0.20;0.20;;;2.70;99.90;;;;;;4999536;28;20545;-81
2021/12/03 08:04:13;;;;;;;1.10;0.30;;;2.90;99.90;;;;;;4996489;28;20209;-82
2021/12/03 08:06:40;;;;;;;0.20;0.20;;;3.10;99.90;;;;;;4989436;28;20210;-81
2021/12/03 08:09:07;;;;;;;2.43;0.50;;;3.10;99.90;;;;;;5012178;28;20195;-82
2021/12/03 08:11:33;;;;;;;0.30;0.20;;;3.10;99.90;;;;;;5014381;28;20238;-82
2021/12/03 08:13:58;;;;;;;1.30;0.37;;;3.20;99.90;;;;;;5019910;28;20172;-81
2021/12/03 08:16:24;;;;;;;0.10;0.10;;;3.30;99.90;;;;;;4993661;28;20205;-81
2021/12/03 08:18:50;;;;;;;0.43;0.43;;;3.20;99.90;;;;;;4988208;28;20180;-81
2021/12/03 08:21:15;;;;;;;0.20;0.20;;;3.20;99.90;;;;;;4994563;28;20196;-82
2021/12/03 08:23:41;;;;;;;0.63;0.63;;;3.30;99.90;;;;;;4999204;28;20629;-81
2021/12/03 08:26:07;;;;;;;0.50;0.50;;;3.30;99.90;;;;;;4998732;28;20382;-81
2021/12/03 08:28:33;;;;;;;0.20;0.20;;;3.50;99.90;;;;;;5000837;28;20256;-81
2021/12/03 08:30:58;;;;;;;0.87;0.87;;;3.70;99.90;;;;;;5018001;28;20180;-81
2021/12/03 08:33:24;;;;;;;1.80;0.40;;;3.90;99.90;;;;;;4997858;28;20235;-81
2021/12/03 08:35:50;;;;;;;0.20;0.20;;;4.10;99.90;;;;;;5000038;28;20219;-80
2021/12/03 08:38:15;;;;;;;0.10;0.10;;;4.10;99.90;;;;;;4996650;28;20217;-81
2021/12/03 08:40:41;;;;;;;0.30;0.30;;;4.00;99.90;;;;;;5012943;28;20193;-80
2021/12/03 08:43:07;;;;;;;0.67;0.50;;;3.90;99.90;;;;;;5019789;28;20172;-81
2021/12/03 08:45:35;;;;;;;1.03;0.77;;;3.70;99.90;;;;;;4999705;28;20220;-80
2021/12/03 08:48:01;;;;;;;0.47;0.27;;;3.60;99.90;;;;;;4994487;28;20183;-82
2021/12/03 08:50:30;;;;;;;0.67;0.20;;;3.60;99.90;;;;;;4996831;28;20187;-83
2021/12/03 08:55:42;;;;;;;0.30;0.27;;;3.70;99.90;;;;;;5020366;28;20205;-81
2021/12/03 08:58:11;;;;;;;0.20;0.20;;;3.80;99.90;;;;;;5007086;28;20189;-81
2021/12/03 09:00:38;;;;;;;0.77;0.63;;;4.00;99.90;;;;;;5015598;28;20665;-81
2021/12/03 09:03:06;;;;;;;0.40;0.40;;;4.10;99.90;;;;;;5014544;28;20272;-81
2021/12/03 09:05:35;;;;;;;0.83;0.23;;;4.10;99.90;;;;;;5013872;28;20205;-81
2021/12/03 09:08:01;;;;;;;0.77;0.40;;;4.20;99.90;;;;;;4998861;28;20172;-82
2021/12/03 09:10:27;;;;;;;0.37;0.37;;;4.50;99.90;;;;;;5017123;28;20189;-81
2021/12/03 09:12:53;;;;;;;0.20;0.20;;;4.70;99.90;;;;;;5002213;28;20187;-82
2021/12/03 09:15:28;;;;;;;0.37;0.30;;;4.90;99.90;;;;;;5000747;28;20201;-81
2021/12/03 09:18:04;;;;;;;0.37;0.17;;;4.70;99.90;;;;;;4999790;28;20199;-81
2021/12/03 09:21:06;;;;;;;0.53;0.53;;;4.80;99.90;;;;;;4992898;28;20680;-80
2021/12/03 09:23:31;;;;;;;2.03;0.57;;;4.70;99.90;;;;;;5007878;28;20200;-81
2021/12/03 09:26:06;;;;;;;0.93;0.40;;;4.70;99.90;;;;;;5003027;28;20231;-81
2021/12/03 09:28:32;;;;;;;0.20;0.20;;;4.80;99.90;;;;;;5002870;28;20206;-81
2021/12/03 09:30:58;;;;;;;0.27;0.27;;;5.10;99.90;;;;;;5021356;28;20188;-81
2021/12/03 09:33:27;;;;;;;1.07;0.43;;;5.10;99.90;;;;;;4996369;28;20187;-81
2021/12/03 09:35:56;;;;;;;0.37;0.37;;;5.20;99.90;;;;;;5002033;28;20541;-80
2021/12/03 09:38:22;;;;;;;0.30;0.30;;;5.30;99.90;;;;;;5001413;28;20188;-81
2021/12/03 09:40:48;;;;;;;0.67;0.57;;;5.50;99.90;;;;;;5001766;28;20579;-81
2021/12/03 09:43:14;;;;;;;0.23;0.23;;;5.70;99.90;;;;;;5001958;28;20257;-81
2021/12/03 09:45:45;;;;;;;0.97;0.20;;;5.50;99.90;;;;;;4998599;28;20257;-80
2021/12/03 09:48:29;;;;;;;0.67;0.67;;;5.30;99.90;;;;;;5001426;28;20176;-81
2021/12/03 09:50:55;;;;;;;0.10;0.10;;;5.30;99.90;;;;;;5017875;28;20545;-80
2021/12/03 09:53:36;;;;;;;0.60;0.60;;;5.20;99.90;;;;;;4996708;28;20178;-81
2021/12/03 09:56:02;;;;;;;0.47;0.47;;;5.10;99.90;;;;;;4998398;28;20207;-80
2021/12/03 09:59:05;;;;;;;0.20;0.20;;;5.00;99.90;;;;;;4998618;28;20230;-80
2021/12/03 10:01:31;;;;;;;0.10;0.10;;;5.00;99.90;;;;;;5017008;28;20228;-79
2021/12/03 10:04:17;;;;;;;0.50;0.37;;;4.90;99.90;;;;;;5011265;28;20182;-79
2021/12/03 10:07:31;;;;;;;0.23;0.23;;;4.70;99.90;;;;;;4994328;28;20222;-79
2021/12/03 10:15:24;;;;;;;0.47;0.47;;;4.60;99.90;;;;;;5010472;28;20219;-80
2021/12/03 10:42:54;;;;;;;1.50;0.47;;;4.70;99.90;;;;;;5014072;28;20268;-80
2021/12/03 10:45:20;;;;;;;0.10;0.10;;;4.70;99.90;;;;;;5005566;28;20350;-80
2021/12/03 10:48:02;;;;;;;0.40;0.40;;;4.80;99.90;;;;;;4987770;28;20195;-80
2021/12/03 11:07:16;;;;;;;0.10;0.10;;;4.30;99.90;;;;;;5004653;28;20262;-80
2021/12/03 11:50:33;;;;;;;0.47;0.40;;;4.20;99.90;;;;;;5010133;28;20652;-79
2021/12/03 12:56:36;;;;;;;0.23;0.20;;;3.70;99.90;;;;;;5010382;28;20189;-80
2021/12/03 13:26:54;;;;;;;0.20;0.20;;;3.80;99.90;;;;;;5019212;28;20373;-79
2021/12/03 13:56:50;;;;;;;0.20;0.20;;;3.70;99.90;;;;;;5005320;28;20692;-80
2021/12/03 14:07:41;;;;;;;0.10;0.10;;;3.60;99.90;;;;;;4997655;28;20247;-80
2021/12/03 14:33:45;;;;;;;0.20;0.20;;;3.70;99.90;;;;;;5012044;28;20203;-80
2021/12/03 14:45:51;;;;;;;0.83;0.30;;;3.70;99.90;;;;;;5017401;28;20250;-80
2021/12/03 14:48:38;;;;;;;0.77;0.20;;;3.70;99.90;;;;;;4994569;28;20185;-80
2021/12/03 14:56:20;;;;;;;0.20;0.20;;;3.60;99.90;;;;;;5018386;28;20267;-80
2021/12/03 14:59:04;;;;;;;0.20;0.20;;;3.60;99.90;;;;;;4995339;28;20182;-80
2021/12/03 15:01:47;;;;;;;0.40;0.40;;;3.60;99.90;;;;;;4995005;28;20179;-80
2021/12/03 15:07:14;;;;;;;2.07;1.53;;;3.50;99.90;;;;;;5019415;28;20238;-80
2021/12/03 15:09:42;;;;;;;0.57;0.30;;;3.50;99.90;;;;;;4997212;28;20184;-81
2021/12/03 15:20:19;;;;;;;0.20;0.20;;;3.40;99.90;;;;;;5006917;28;20207;-79
2021/12/03 15:25:35;;;;;;;0.50;0.50;;;3.50;99.90;;;;;;5003611;28;20215;-80
2021/12/03 15:35:26;;;;;;;0.40;0.40;;;3.50;99.90;;;;;;5018078;28;20715;-80
2021/12/03 15:57:01;;;;;;;0.30;0.30;;;3.40;99.90;;;;;;5011130;28;20346;-80
2021/12/03 16:04:43;;;;;;;0.40;0.40;;;3.50;99.90;;;;;;5012671;28;20193;-80
2021/12/03 16:12:35;;;;;;;0.20;0.20;;;3.50;99.90;;;;;;5021754;28;20533;-80
2021/12/03 16:16:04;;;;;;;0.30;0.20;;;3.50;99.90;;;;;;5018238;28;20227;-79
2021/12/03 16:18:22;;;;;;;0.10;0.10;;;3.50;99.90;;;;;;5013608;28;20219;-79
2021/12/03 16:23:49;;;;;;;0.53;0.53;;;3.60;99.90;;;;;;5020464;28;20692;-80
2021/12/03 16:45:34;;;;;;;0.07;0.07;;;3.70;99.90;;;;;;5013111;28;20702;-80
2021/12/03 16:53:32;;;;;;;0.10;0.10;;;3.80;99.90;;;;;;4980612;28;20248;-80
2021/12/03 16:56:21;;;;;;;0.10;0.10;;;3.80;99.90;;;;;;5000504;28;20620;-80
2021/12/03 16:58:47;;;;;;;0.33;0.30;;;3.80;99.90;;;;;;5002062;28;20546;-80
2021/12/03 17:01:28;;;;;;;0.43;0.43;;;3.90;99.90;;;;;;4999343;28;20271;-80
2021/12/03 17:09:14;;;;;;;0.40;0.17;;;3.90;99.90;;;;;;5013576;28;20190;-80
2021/12/03 17:12:04;;;;;;;0.20;0.20;;;3.90;99.90;;;;;;4996304;28;20179;-80
2021/12/03 17:49:47;;;;;;;0.17;0.17;;;3.90;99.90;;;;;;5015263;28;20209;-80
2021/12/03 18:00:20;;;;;;;0.77;0.77;;;4.00;99.90;;;;;;5016788;28;20278;-80
2021/12/03 18:02:49;;;;;;;0.30;0.30;;;4.00;99.90;;;;;;4998145;28;20190;-80
2021/12/03 18:07:51;;;;;;;0.10;0.10;;;3.90;99.90;;;;;;5007640;28;20208;-80
2021/12/03 18:13:14;;;;;;;0.47;0.43;;;3.90;99.90;;;;;;5015325;28;20961;-80
2021/12/03 18:18:51;;;;;;;0.10;0.10;;;3.90;99.90;;;;;;5014831;28;20187;-79
2021/12/03 18:51:00;;;;;;;1.13;0.20;;;3.80;99.90;;;;;;5015520;28;20196;-80
2021/12/03 18:53:38;;;;;;;0.10;0.10;;;3.90;99.90;;;;;;4995870;28;20180;-80
2021/12/03 18:56:08;;;;;;;0.57;0.57;;;3.90;99.90;;;;;;5008690;28;20222;-80
2021/12/03 18:58:34;;;;;;;0.20;0.20;;;3.90;99.90;;;;;;4997350;28;20181;-80
2021/12/03 19:01:00;;;;;;;0.30;0.30;;;3.90;99.90;;;;;;4995934;28;20208;-80
2021/12/03 19:11:20;;;;;;;0.40;0.30;;;4.10;99.90;;;;;;5021376;28;20277;-80
2021/12/03 19:13:46;;;;;;;1.20;0.40;;;4.10;99.90;;;;;;5016075;28;20248;-79
2021/12/03 19:16:15;;;;;;;0.93;0.40;;;4.00;99.90;;;;;;5001072;28;20276;-80
2021/12/03 19:18:44;;;;;;;0.40;0.40;;;4.00;99.90;;;;;;4997622;28;20186;-80
2021/12/03 19:21:18;;;;;;;0.57;0.57;;;4.00;99.90;;;;;;5005251;28;20187;-80
2021/12/03 19:23:44;;;;;;;0.20;0.20;;;4.00;99.90;;;;;;4999574;28;20613;-80
2021/12/03 19:26:09;;;;;;;0.37;0.37;;;4.00;99.90;;;;;;5021192;28;20206;-80
2021/12/03 19:28:36;;;;;;;0.40;0.40;;;3.90;99.90;;;;;;5001749;28;20205;-80
2021/12/03 19:31:05;;;;;;;0.30;0.30;;;3.90;99.90;;;;;;5005240;28;20185;-80
2021/12/03 19:33:33;;;;;;;0.20;0.20;;;4.00;99.90;;;;;;5003640;28;20225;-80
2021/12/03 19:35:58;;;;;;;5.57;0.70;;;4.00;99.90;;;;;;5003402;28;20206;-79
2021/12/03 19:38:24;;;;;;;0.17;0.17;;;4.00;99.90;;;;;;5002762;28;20189;-80
2021/12/03 19:40:57;;;;;;;0.37;0.37;;;4.10;99.90;;;;;;5027926;28;20633;-80
2021/12/03 19:44:09;;;;;;;0.63;0.63;;;4.10;99.90;;;;;;5005432;28;20549;-80
2021/12/03 19:46:19;;;;;;;2.97;0.77;;;4.10;99.90;;;;;;5009137;28;20245;-80
2021/12/03 19:51:46;;;;;;;0.27;0.27;;;4.10;99.90;;;;;;4990973;28;20253;-80
2021/12/03 19:54:13;;;;;;;0.27;0.27;;;4.20;99.90;;;;;;4998287;28;20266;-80
2021/12/03 19:56:40;;;;;;;0.17;0.17;;;4.20;99.90;;;;;;5021034;28;20210;-80
2021/12/03 19:59:13;;;;;;;1.60;0.37;;;4.10;99.90;;;;;;5002526;28;20186;-80
2021/12/03 20:01:40;;;;;;;0.10;0.10;;;4.10;99.90;;;;;;5017635;28;20192;-80
2021/12/03 20:04:07;;;;;;;0.20;0.20;;;4.00;99.90;;;;;;5001994;28;20651;-80
2021/12/03 20:06:35;;;;;;;0.10;0.10;;;4.00;99.90;;;;;;4998420;28;20684;-80
2021/12/03 20:09:03;;;;;;;0.20;0.20;;;4.10;99.90;;;;;;5023501;28;20263;-80
2021/12/03 20:11:45;;;;;;;0.20;0.20;;;4.10;99.90;;;;;;5023651;28;20182;-81
2021/12/03 20:14:13;;;;;;;0.50;0.20;;;4.10;99.90;;;;;;5021902;28;20172;-80